Time;durP1;ratioP1;P1;durP2;ratioP2;P2;SDS_P1;SDS_P2;PMS_P1;PMS_P2;Temp;Humidity;BMP_temperature;BMP_pressure;BME280_temperature;BME280_humidity;BME280_pressure;Samples;Min_cycle;Max_cycle;Signal;HPM_P1;HPM_P2
2021/12/10 00:00:46;;;;;;;63.08;26.25;;;;;;;;;;5013178;28;20053;-45
2021/12/10 00:03:19;;;;;;;68.93;27.75;;;;;;;;;;5017456;28;20120;-46
2021/12/10 00:05:50;;;;;;;74.20;29.92;;;;;;;;;;5019559;28;20053;-46
2021/12/10 00:08:16;;;;;;;81.35;29.63;;;;;;;;;;5021462;28;20060;-45
2021/12/10 00:10:45;;;;;;;70.47;28.85;;;;;;;;;;5021026;28;20085;-45
2021/12/10 00:13:11;;;;;;;77.00;28.38;;;;;;;;;;5022507;28;20022;-48
2021/12/10 00:15:39;;;;;;;89.97;29.83;;;;;;;;;;5019492;28;20070;-46
2021/12/10 00:18:06;;;;;;;74.72;29.48;;;;;;;;;;5019387;28;20160;-47
2021/12/10 00:20:35;;;;;;;72.57;29.45;;;;;;;;;;5016848;28;20040;-45
2021/12/10 00:23:03;;;;;;;73.00;28.05;;;;;;;;;;5022210;28;20022;-46
2021/12/10 00:25:37;;;;;;;76.70;29.23;;;;;;;;;;5029358;28;20021;-46
2021/12/10 00:28:13;;;;;;;79.95;27.95;;;;;;;;;;5021988;28;20121;-47
2021/12/10 00:30:54;;;;;;;72.80;27.30;;;;;;;;;;5021447;28;20400;-44
2021/12/10 00:33:21;;;;;;;89.68;28.85;;;;;;;;;;5021887;28;20044;-44
2021/12/10 00:35:48;;;;;;;74.55;28.77;;;;;;;;;;5028303;28;20025;-44
2021/12/10 00:38:15;;;;;;;73.15;29.05;;;;;;;;;;5026686;28;20080;-46
2021/12/10 00:40:41;;;;;;;76.32;28.67;;;;;;;;;;5024733;28;20037;-45
2021/12/10 00:43:07;;;;;;;73.20;26.95;;;;;;;;;;5025973;28;20115;-44
2021/12/10 00:45:33;;;;;;;79.50;26.73;;;;;;;;;;5026150;28;20393;-45
2021/12/10 00:47:59;;;;;;;75.20;29.48;;;;;;;;;;5023512;28;20121;-47
2021/12/10 00:50:30;;;;;;;67.90;26.42;;;;;;;;;;5026288;28;20033;-46
2021/12/10 00:52:56;;;;;;;65.18;26.48;;;;;;;;;;5026003;28;20044;-47
2021/12/10 00:55:23;;;;;;;63.13;25.63;;;;;;;;;;5028538;28;20025;-46
2021/12/10 00:57:49;;;;;;;63.58;25.23;;;;;;;;;;5024829;28;20032;-46
2021/12/10 01:00:19;;;;;;;66.72;25.42;;;;;;;;;;5024148;28;20048;-45
2021/12/10 01:02:45;;;;;;;72.05;26.00;;;;;;;;;;5027024;28;20158;-45
2021/12/10 01:05:12;;;;;;;67.63;23.85;;;;;;;;;;5028885;28;20065;-44
2021/12/10 01:07:39;;;;;;;64.93;24.42;;;;;;;;;;5033103;28;20369;-45
2021/12/10 01:10:08;;;;;;;62.83;25.20;;;;;;;;;;5026831;28;20049;-44
2021/12/10 01:12:37;;;;;;;57.83;23.55;;;;;;;;;;5031352;28;20227;-45
2021/12/10 01:28:48;;;;;;;76.25;24.77;;;;;;;;;;5030991;28;20304;-46
2021/12/10 01:31:15;;;;;;;72.38;25.80;;;;;;;;;;5025322;28;20037;-46
2021/12/10 01:33:42;;;;;;;61.75;23.00;;;;;;;;;;5033371;28;20060;-45
2021/12/10 01:36:09;;;;;;;76.72;25.77;;;;;;;;;;5032448;28;20465;-45
2021/12/10 01:38:36;;;;;;;73.95;24.42;;;;;;;;;;5020232;28;20029;-46
2021/12/10 01:41:06;;;;;;;65.25;24.35;;;;;;;;;;5026618;28;20040;-45
2021/12/10 01:43:33;;;;;;;65.65;24.92;;;;;;;;;;5023671;28;20028;-44
2021/12/10 01:46:06;;;;;;;57.80;23.27;;;;;;;;;;5027301;28;20395;-44
2021/12/10 01:48:37;;;;;;;67.18;24.15;;;;;;;;;;5030541;28;20036;-45
2021/12/10 01:51:04;;;;;;;60.10;24.35;;;;;;;;;;5024815;28;20063;-44
2021/12/10 01:53:31;;;;;;;57.78;23.50;;;;;;;;;;5032975;28;20032;-44
2021/12/10 01:55:59;;;;;;;68.10;25.73;;;;;;;;;;5033129;28;21692;-45
2021/12/10 01:58:27;;;;;;;70.32;25.25;;;;;;;;;;5026967;28;20056;-44
2021/12/10 02:00:55;;;;;;;63.70;24.60;;;;;;;;;;5029688;28;20026;-45
2021/12/10 02:03:21;;;;;;;60.67;24.63;;;;;;;;;;5030719;28;21606;-46
2021/12/10 02:05:47;;;;;;;59.05;21.77;;;;;;;;;;5017214;28;20057;-45
2021/12/10 02:08:13;;;;;;;59.28;22.95;;;;;;;;;;5025652;28;20054;-46
2021/12/10 02:10:40;;;;;;;60.35;23.40;;;;;;;;;;5028770;28;20025;-46
2021/12/10 02:13:06;;;;;;;60.58;23.73;;;;;;;;;;5027483;28;20060;-48
2021/12/10 02:15:32;;;;;;;72.18;23.83;;;;;;;;;;5032256;28;20033;-45
2021/12/10 02:17:59;;;;;;;60.47;22.80;;;;;;;;;;5030590;28;20030;-45
2021/12/10 02:20:28;;;;;;;76.28;23.38;;;;;;;;;;5027287;28;20432;-44
2021/12/10 02:22:54;;;;;;;61.45;24.02;;;;;;;;;;5028431;28;20072;-47
2021/12/10 02:25:22;;;;;;;66.75;26.30;;;;;;;;;;5031326;28;20060;-44
2021/12/10 02:27:49;;;;;;;67.22;23.83;;;;;;;;;;5023417;28;20022;-44
2021/12/10 02:30:16;;;;;;;75.75;24.35;;;;;;;;;;5021808;28;20084;-45
2021/12/10 02:32:42;;;;;;;71.13;25.65;;;;;;;;;;5026618;28;20076;-43
2021/12/10 02:35:11;;;;;;;66.60;24.92;;;;;;;;;;5031758;28;20453;-45
2021/12/10 02:37:38;;;;;;;58.55;24.27;;;;;;;;;;5011505;28;20022;-43
2021/12/10 02:40:05;;;;;;;62.80;23.15;;;;;;;;;;5015784;28;20500;-44
2021/12/10 02:42:31;;;;;;;63.80;23.70;;;;;;;;;;5021274;23;20042;-41
2021/12/10 02:44:58;;;;;;;74.07;25.23;;;;;;;;;;5001530;28;20034;-41
2021/12/10 02:47:24;;;;;;;71.47;25.50;;;;;;;;;;4996568;28;20022;-39
2021/12/10 02:49:50;;;;;;;66.30;22.88;;;;;;;;;;4997318;28;20070;-41
2021/12/10 02:52:17;;;;;;;70.20;25.30;;;;;;;;;;4993381;28;20037;-43
2021/12/10 02:54:44;;;;;;;67.70;24.05;;;;;;;;;;4989749;28;20080;-41
2021/12/10 02:57:16;;;;;;;69.35;24.50;;;;;;;;;;4991801;28;20110;-39
2021/12/10 02:59:42;;;;;;;68.97;25.25;;;;;;;;;;4989836;28;20058;-40
2021/12/10 03:02:11;;;;;;;67.70;24.70;;;;;;;;;;4991040;28;20077;-41
2021/12/10 03:04:37;;;;;;;71.85;24.27;;;;;;;;;;4990240;28;20027;-40
2021/12/10 03:07:08;;;;;;;64.85;24.88;;;;;;;;;;4989404;28;20400;-39
2021/12/10 03:09:34;;;;;;;61.17;22.85;;;;;;;;;;4988553;28;20030;-40
2021/12/10 03:12:00;;;;;;;61.53;24.90;;;;;;;;;;4988895;28;20041;-40
2021/12/10 03:14:31;;;;;;;63.00;23.50;;;;;;;;;;4990508;28;20022;-41
2021/12/10 03:16:58;;;;;;;59.55;22.75;;;;;;;;;;4990208;28;20461;-38
2021/12/10 03:19:25;;;;;;;62.35;23.10;;;;;;;;;;4986965;28;20029;-40
2021/12/10 03:21:51;;;;;;;62.47;23.42;;;;;;;;;;4990127;28;20054;-40
2021/12/10 03:24:20;;;;;;;67.32;23.77;;;;;;;;;;4986483;28;20428;-39
2021/12/10 03:26:46;;;;;;;65.60;23.02;;;;;;;;;;4990187;28;20022;-40
2021/12/10 03:29:12;;;;;;;57.03;22.95;;;;;;;;;;4989175;28;20073;-40
2021/12/10 03:31:39;;;;;;;55.22;22.85;;;;;;;;;;4990690;28;20575;-39
2021/12/10 03:34:05;;;;;;;55.03;22.63;;;;;;;;;;4989371;28;20496;-40
2021/12/10 03:36:31;;;;;;;58.90;20.67;;;;;;;;;;4987454;28;20113;-43
2021/12/10 03:38:57;;;;;;;67.05;25.05;;;;;;;;;;4990624;28;20030;-40
2021/12/10 03:41:24;;;;;;;66.68;24.92;;;;;;;;;;4991049;28;20069;-40
2021/12/10 03:43:53;;;;;;;71.47;26.33;;;;;;;;;;4989824;28;20113;-41
2021/12/10 03:46:19;;;;;;;61.17;22.48;;;;;;;;;;4989408;28;20462;-41
2021/12/10 03:48:46;;;;;;;73.70;24.50;;;;;;;;;;4988915;28;20041;-38
2021/12/10 03:51:14;;;;;;;62.80;23.52;;;;;;;;;;4987279;28;20488;-39
2021/12/10 03:53:40;;;;;;;53.67;21.98;;;;;;;;;;4993245;28;20061;-41
2021/12/10 03:56:12;;;;;;;68.57;24.13;;;;;;;;;;4988598;28;20053;-41
2021/12/10 03:58:38;;;;;;;64.68;23.38;;;;;;;;;;4988492;28;20030;-38
2021/12/10 04:01:06;;;;;;;65.18;22.20;;;;;;;;;;4987428;28;20124;-45
2021/12/10 04:03:32;;;;;;;68.15;23.58;;;;;;;;;;4987762;28;20034;-40
2021/12/10 04:05:59;;;;;;;72.55;23.90;;;;;;;;;;4990051;28;20121;-42
2021/12/10 04:08:25;;;;;;;57.67;21.58;;;;;;;;;;4988553;28;20112;-41
2021/12/10 04:10:52;;;;;;;54.85;22.40;;;;;;;;;;4989442;28;20058;-44
2021/12/10 04:13:18;;;;;;;53.50;21.00;;;;;;;;;;4988469;28;20081;-39
2021/12/10 04:15:44;;;;;;;65.47;23.98;;;;;;;;;;4989735;28;20054;-37
2021/12/10 04:18:11;;;;;;;58.08;21.63;;;;;;;;;;4989930;28;20054;-39
2021/12/10 04:20:38;;;;;;;66.60;21.98;;;;;;;;;;4990236;28;20018;-43
2021/12/10 04:23:05;;;;;;;60.83;23.13;;;;;;;;;;4988505;28;20038;-43
2021/12/10 04:25:31;;;;;;;52.20;20.45;;;;;;;;;;4994819;28;20158;-40
2021/12/10 04:28:06;;;;;;;57.95;21.08;;;;;;;;;;4988377;28;20073;-41
2021/12/10 04:30:37;;;;;;;54.03;21.55;;;;;;;;;;4988447;28;20358;-40
2021/12/10 04:33:04;;;;;;;54.05;20.83;;;;;;;;;;4989291;28;20018;-40
2021/12/10 04:35:30;;;;;;;53.90;21.25;;;;;;;;;;4985502;28;20088;-42
2021/12/10 04:37:56;;;;;;;52.58;20.35;;;;;;;;;;4988720;28;20030;-40
2021/12/10 04:40:23;;;;;;;53.53;20.52;;;;;;;;;;4990071;28;20026;-40
2021/12/10 04:42:49;;;;;;;53.72;19.80;;;;;;;;;;4986448;28;20026;-42
2021/12/10 04:45:17;;;;;;;47.63;20.27;;;;;;;;;;4988660;28;20065;-41
2021/12/10 04:47:44;;;;;;;52.33;19.92;;;;;;;;;;4987833;28;20030;-41
2021/12/10 04:50:11;;;;;;;56.83;20.35;;;;;;;;;;4988965;28;20663;-39
2021/12/10 04:52:37;;;;;;;49.90;18.33;;;;;;;;;;4987690;28;20112;-44
2021/12/10 04:55:05;;;;;;;53.30;18.95;;;;;;;;;;4988155;28;20041;-38
2021/12/10 04:57:31;;;;;;;53.58;19.52;;;;;;;;;;4991334;28;20034;-42
2021/12/10 04:59:57;;;;;;;54.08;21.90;;;;;;;;;;4992022;28;20109;-41
2021/12/10 05:02:23;;;;;;;50.33;18.98;;;;;;;;;;4993735;28;20669;-39
2021/12/10 05:04:50;;;;;;;48.83;18.90;;;;;;;;;;4991400;28;20036;-43
2021/12/10 05:07:17;;;;;;;51.35;18.35;;;;;;;;;;4992297;28;20184;-43
2021/12/10 05:09:43;;;;;;;52.35;18.30;;;;;;;;;;4991861;28;20089;-41
2021/12/10 05:12:10;;;;;;;43.58;17.85;;;;;;;;;;4994930;28;20022;-41
2021/12/10 05:14:36;;;;;;;49.42;18.33;;;;;;;;;;4987573;28;20030;-42
2021/12/10 05:17:07;;;;;;;48.10;18.27;;;;;;;;;;4993386;28;20350;-41
2021/12/10 05:19:34;;;;;;;42.70;17.55;;;;;;;;;;4991996;28;20025;-41
2021/12/10 05:22:01;;;;;;;38.55;16.98;;;;;;;;;;4993828;28;20026;-42
2021/12/10 05:24:28;;;;;;;50.33;17.05;;;;;;;;;;4992440;28;20421;-40
2021/12/10 05:26:54;;;;;;;48.22;18.80;;;;;;;;;;4993928;28;20038;-41
2021/12/10 05:29:20;;;;;;;38.85;16.23;;;;;;;;;;4990387;28;20030;-40
2021/12/10 05:31:47;;;;;;;47.03;17.27;;;;;;;;;;4991941;28;20545;-41
2021/12/10 05:34:13;;;;;;;49.75;17.52;;;;;;;;;;4993170;28;20054;-40
2021/12/10 05:36:39;;;;;;;45.08;15.80;;;;;;;;;;4992587;28;20513;-40
2021/12/10 05:39:06;;;;;;;46.10;19.20;;;;;;;;;;4992873;28;20405;-40
2021/12/10 05:41:32;;;;;;;53.90;19.33;;;;;;;;;;4993157;28;20022;-40
2021/12/10 05:43:59;;;;;;;39.92;17.40;;;;;;;;;;4991341;28;20050;-40
2021/12/10 05:46:25;;;;;;;46.92;18.75;;;;;;;;;;5007563;28;20018;-39
2021/12/10 05:48:51;;;;;;;52.92;19.73;;;;;;;;;;4995975;28;20553;-40
2021/12/10 05:51:17;;;;;;;57.13;20.58;;;;;;;;;;4994838;28;20061;-39
2021/12/10 05:53:43;;;;;;;49.78;19.60;;;;;;;;;;4994867;28;20034;-41
2021/12/10 05:56:09;;;;;;;48.97;17.73;;;;;;;;;;4992935;28;20142;-40
2021/12/10 05:58:36;;;;;;;47.97;18.25;;;;;;;;;;4992275;28;20504;-39
2021/12/10 06:01:07;;;;;;;59.25;20.42;;;;;;;;;;4992571;28;20058;-40
2021/12/10 06:03:35;;;;;;;43.42;18.50;;;;;;;;;;4993046;28;20026;-40
2021/12/10 06:06:02;;;;;;;50.60;18.15;;;;;;;;;;4994290;28;20026;-36
2021/12/10 06:08:28;;;;;;;52.20;18.00;;;;;;;;;;4992713;28;20057;-40
2021/12/10 06:10:55;;;;;;;54.40;18.40;;;;;;;;;;4993071;28;20022;-37
2021/12/10 06:13:21;;;;;;;47.70;18.73;;;;;;;;;;4991535;28;20050;-39
2021/12/10 06:15:47;;;;;;;55.60;19.90;;;;;;;;;;4993295;28;20026;-37
2021/12/10 06:18:14;;;;;;;50.60;18.55;;;;;;;;;;4994286;28;20025;-40
2021/12/10 06:20:42;;;;;;;47.08;19.50;;;;;;;;;;4989968;28;20113;-40
2021/12/10 06:23:08;;;;;;;59.97;20.00;;;;;;;;;;4992875;28;20049;-40
2021/12/10 06:25:35;;;;;;;56.95;19.25;;;;;;;;;;4995056;28;20533;-40
2021/12/10 06:28:02;;;;;;;48.88;17.98;;;;;;;;;;4995633;28;20022;-38
2021/12/10 06:30:31;;;;;;;56.83;19.60;;;;;;;;;;4994549;28;20031;-40
2021/12/10 06:32:58;;;;;;;51.47;20.50;;;;;;;;;;4995561;28;20027;-41
2021/12/10 06:35:25;;;;;;;57.45;20.83;;;;;;;;;;4994862;28;20042;-38
2021/12/10 06:37:53;;;;;;;59.65;20.08;;;;;;;;;;4995798;28;20113;-40
2021/12/10 06:40:19;;;;;;;51.50;20.50;;;;;;;;;;4995450;28;20353;-39
2021/12/10 06:42:46;;;;;;;51.15;20.90;;;;;;;;;;4995116;28;20085;-41
2021/12/10 06:45:13;;;;;;;61.50;20.95;;;;;;;;;;4995329;28;20026;-40
2021/12/10 06:47:41;;;;;;;56.28;20.02;;;;;;;;;;4995430;28;20512;-38
2021/12/10 06:50:08;;;;;;;54.08;19.25;;;;;;;;;;4992793;28;20041;-39
2021/12/10 06:52:34;;;;;;;50.55;20.95;;;;;;;;;;4991762;28;20045;-39
2021/12/10 06:55:01;;;;;;;61.80;20.92;;;;;;;;;;4988169;28;20057;-39
2021/12/10 06:57:27;;;;;;;63.70;20.10;;;;;;;;;;4993573;28;20100;-39
2021/12/10 06:59:55;;;;;;;49.47;19.42;;;;;;;;;;4991036;28;20022;-40
2021/12/10 07:02:21;;;;;;;49.00;19.50;;;;;;;;;;4992301;28;20033;-37
2021/12/10 07:04:47;;;;;;;55.83;21.17;;;;;;;;;;4992190;28;20101;-37
2021/12/10 07:07:13;;;;;;;47.63;19.05;;;;;;;;;;4991175;28;20062;-43
2021/12/10 07:09:39;;;;;;;50.78;21.00;;;;;;;;;;4991284;28;20022;-39
2021/12/10 07:12:07;;;;;;;59.15;20.20;;;;;;;;;;4991241;28;20022;-38
2021/12/10 07:14:33;;;;;;;42.63;19.33;;;;;;;;;;4994859;28;20442;-40
2021/12/10 07:16:59;;;;;;;54.13;20.48;;;;;;;;;;4998147;28;20031;-40
2021/12/10 07:19:27;;;;;;;61.25;21.98;;;;;;;;;;4991865;28;20054;-42
2021/12/10 07:21:53;;;;;;;48.03;19.42;;;;;;;;;;4993873;28;20022;-38
2021/12/10 07:24:20;;;;;;;55.33;21.58;;;;;;;;;;4990501;28;20023;-38
2021/12/10 07:26:46;;;;;;;48.70;20.20;;;;;;;;;;4991265;28;20030;-38
2021/12/10 07:29:12;;;;;;;57.75;21.13;;;;;;;;;;4989448;28;20399;-39
2021/12/10 07:31:39;;;;;;;57.00;22.08;;;;;;;;;;4991787;28;20124;-38
2021/12/10 07:34:05;;;;;;;53.55;21.80;;;;;;;;;;4991140;28;20033;-38
2021/12/10 07:36:31;;;;;;;55.40;21.38;;;;;;;;;;4993150;28;20028;-38
2021/12/10 07:38:58;;;;;;;55.85;20.00;;;;;;;;;;4992305;28;20034;-38
2021/12/10 07:41:24;;;;;;;59.65;20.83;;;;;;;;;;4990324;28;20026;-38
2021/12/10 07:43:50;;;;;;;53.53;21.67;;;;;;;;;;4990745;28;20132;-38
2021/12/10 07:46:16;;;;;;;53.60;21.23;;;;;;;;;;4989730;28;20054;-38
2021/12/10 07:48:43;;;;;;;61.22;22.08;;;;;;;;;;4979870;28;20022;-38
2021/12/10 07:51:11;;;;;;;57.17;22.05;;;;;;;;;;4988114;28;20090;-38
2021/12/10 07:53:39;;;;;;;51.72;21.35;;;;;;;;;;4975732;28;20035;-38
2021/12/10 07:56:06;;;;;;;56.00;22.42;;;;;;;;;;4985928;28;20019;-38
2021/12/10 07:58:33;;;;;;;56.97;21.85;;;;;;;;;;4982155;28;20054;-38
2021/12/10 08:01:00;;;;;;;51.67;22.02;;;;;;;;;;4981531;28;20030;-38
2021/12/10 08:03:26;;;;;;;60.67;21.20;;;;;;;;;;4994831;28;20023;-38
2021/12/10 08:05:52;;;;;;;57.22;21.42;;;;;;;;;;4999160;28;20081;-38
2021/12/10 08:08:19;;;;;;;51.53;20.83;;;;;;;;;;5007709;28;20050;-38
2021/12/10 08:10:47;;;;;;;51.15;21.35;;;;;;;;;;4990344;28;20113;-38
2021/12/10 08:13:14;;;;;;;56.78;21.00;;;;;;;;;;4983141;28;20053;-38
2021/12/10 08:15:40;;;;;;;63.17;22.30;;;;;;;;;;4991201;28;20470;-38
2021/12/10 08:18:06;;;;;;;59.72;21.50;;;;;;;;;;4991043;28;20033;-38
2021/12/10 08:20:32;;;;;;;50.33;22.05;;;;;;;;;;4987228;28;20109;-38
2021/12/10 08:22:58;;;;;;;55.08;20.85;;;;;;;;;;4991068;28;20018;-38
2021/12/10 08:25:25;;;;;;;53.85;20.23;;;;;;;;;;4991104;28;20057;-38
2021/12/10 08:27:52;;;;;;;61.53;23.88;;;;;;;;;;4983170;28;20057;-38
2021/12/10 08:30:20;;;;;;;56.85;22.13;;;;;;;;;;5000409;28;20058;-38
2021/12/10 08:32:46;;;;;;;66.22;24.00;;;;;;;;;;4979871;28;20030;-38
2021/12/10 08:35:14;;;;;;;63.50;24.98;;;;;;;;;;4987760;28;20030;-38
2021/12/10 08:37:41;;;;;;;59.35;24.00;;;;;;;;;;4988969;28;20037;-38
2021/12/10 08:40:10;;;;;;;59.40;24.17;;;;;;;;;;4988835;28;20019;-38
2021/12/10 08:42:36;;;;;;;59.30;24.27;;;;;;;;;;4989631;28;20113;-38
2021/12/10 08:45:02;;;;;;;68.05;25.42;;;;;;;;;;5007070;22;20044;-41
2021/12/10 08:47:28;;;;;;;62.83;23.92;;;;;;;;;;5009740;28;20457;-42
2021/12/10 08:49:54;;;;;;;61.08;23.65;;;;;;;;;;5010582;28;20049;-41
2021/12/10 08:52:20;;;;;;;68.10;24.42;;;;;;;;;;5009821;28;20029;-41
2021/12/10 08:54:46;;;;;;;79.00;26.17;;;;;;;;;;5010373;28;20034;-40
2021/12/10 08:57:13;;;;;;;64.43;24.00;;;;;;;;;;5013374;28;20097;-40
2021/12/10 08:59:40;;;;;;;64.13;23.75;;;;;;;;;;5021415;28;20036;-44
2021/12/10 09:02:08;;;;;;;64.70;25.20;;;;;;;;;;5012348;28;20025;-40
2021/12/10 09:04:34;;;;;;;61.60;24.35;;;;;;;;;;5009560;28;20452;-41
2021/12/10 09:07:03;;;;;;;60.00;24.95;;;;;;;;;;5010379;28;20026;-43
2021/12/10 09:09:30;;;;;;;57.78;23.33;;;;;;;;;;5007631;28;20587;-41
2021/12/10 09:11:57;;;;;;;70.40;27.90;;;;;;;;;;5007566;28;20429;-41
2021/12/10 09:14:28;;;;;;;61.53;23.88;;;;;;;;;;5008783;28;20033;-43
2021/12/10 09:16:55;;;;;;;60.50;25.33;;;;;;;;;;5012036;28;20014;-43
2021/12/10 09:19:22;;;;;;;62.97;24.08;;;;;;;;;;5008624;28;20018;-43
2021/12/10 09:21:49;;;;;;;65.40;25.48;;;;;;;;;;5009110;28;20071;-39
2021/12/10 09:24:18;;;;;;;61.22;25.38;;;;;;;;;;5011737;28;20079;-41
2021/12/10 09:26:45;;;;;;;69.15;27.25;;;;;;;;;;5009120;28;20026;-41
2021/12/10 09:29:13;;;;;;;63.33;23.70;;;;;;;;;;5007206;28;20087;-44
2021/12/10 09:31:42;;;;;;;59.53;23.55;;;;;;;;;;5009782;28;20018;-41
2021/12/10 09:34:09;;;;;;;64.78;24.38;;;;;;;;;;5008655;28;20117;-37
2021/12/10 09:36:35;;;;;;;62.47;22.60;;;;;;;;;;5009840;28;20057;-41
2021/12/10 09:39:02;;;;;;;77.13;24.50;;;;;;;;;;5008124;28;20145;-41
2021/12/10 09:41:28;;;;;;;64.72;23.17;;;;;;;;;;5009147;28;20026;-42
2021/12/10 09:43:54;;;;;;;62.22;23.90;;;;;;;;;;5010552;28;20056;-41
2021/12/10 09:46:20;;;;;;;60.08;24.65;;;;;;;;;;5011553;28;20034;-41
2021/12/10 09:48:47;;;;;;;58.53;23.35;;;;;;;;;;5009934;28;20030;-40
2021/12/10 09:51:24;;;;;;;71.55;23.27;;;;;;;;;;5009899;28;20037;-41
2021/12/10 09:53:52;;;;;;;53.83;22.17;;;;;;;;;;5009518;28;20481;-41
2021/12/10 09:56:19;;;;;;;54.53;22.17;;;;;;;;;;5010665;28;20022;-39
2021/12/10 09:58:45;;;;;;;59.95;22.48;;;;;;;;;;5011176;28;20022;-43
2021/12/10 10:01:20;;;;;;;65.25;24.10;;;;;;;;;;5012503;28;20412;-44
2021/12/10 10:03:47;;;;;;;58.38;21.42;;;;;;;;;;5010653;28;20032;-41
2021/12/10 10:06:14;;;;;;;60.28;23.27;;;;;;;;;;5010623;28;20113;-41
2021/12/10 10:08:40;;;;;;;51.30;21.92;;;;;;;;;;5012243;28;20026;-42
2021/12/10 10:11:11;;;;;;;51.45;21.30;;;;;;;;;;5012287;28;20041;-41
2021/12/10 10:13:39;;;;;;;57.60;21.95;;;;;;;;;;5011494;28;20138;-41
2021/12/10 10:16:06;;;;;;;54.33;23.65;;;;;;;;;;5011502;28;20049;-41
2021/12/10 10:18:34;;;;;;;50.08;19.70;;;;;;;;;;5010440;28;20169;-41
2021/12/10 10:21:03;;;;;;;53.83;22.98;;;;;;;;;;5011631;28;20022;-40
2021/12/10 10:23:29;;;;;;;50.45;20.38;;;;;;;;;;5009826;28;20054;-41
2021/12/10 10:26:01;;;;;;;46.38;19.70;;;;;;;;;;5005028;28;20045;-41
2021/12/10 10:28:27;;;;;;;50.38;22.15;;;;;;;;;;5007726;28;20038;-41
2021/12/10 10:31:05;;;;;;;47.60;19.65;;;;;;;;;;5007969;28;20473;-42
2021/12/10 10:33:33;;;;;;;46.40;19.13;;;;;;;;;;5009155;28;20531;-41
2021/12/10 10:36:01;;;;;;;46.42;18.90;;;;;;;;;;5010911;28;20133;-42
2021/12/10 10:38:28;;;;;;;37.95;16.88;;;;;;;;;;5010662;28;20436;-41
2021/12/10 10:41:00;;;;;;;43.92;18.35;;;;;;;;;;5009812;28;20030;-41
2021/12/10 10:43:28;;;;;;;41.00;18.30;;;;;;;;;;5009788;28;20470;-41
2021/12/10 10:45:56;;;;;;;42.67;17.13;;;;;;;;;;5011145;28;20084;-37
2021/12/10 10:48:22;;;;;;;44.20;18.77;;;;;;;;;;5012785;28;20444;-41
2021/12/10 10:50:48;;;;;;;40.45;18.20;;;;;;;;;;5010743;28;20021;-41
2021/12/10 10:53:15;;;;;;;38.40;16.38;;;;;;;;;;5007012;28;20362;-40
2021/12/10 10:55:48;;;;;;;42.72;18.25;;;;;;;;;;5009392;28;20032;-40
2021/12/10 10:58:16;;;;;;;41.78;18.60;;;;;;;;;;5011293;28;20029;-41
2021/12/10 11:03:42;;;;;;;39.25;15.98;;;;;;;;;;4981814;28;20091;-40
2021/12/10 11:06:10;;;;;;;40.28;15.85;;;;;;;;;;5010743;28;20056;-40
2021/12/10 11:08:38;;;;;;;33.83;16.10;;;;;;;;;;5006998;28;20104;-38
2021/12/10 11:11:22;;;;;;;35.90;15.57;;;;;;;;;;5009702;28;20108;-41
2021/12/10 11:13:50;;;;;;;31.25;13.98;;;;;;;;;;5008024;28;20433;-41
2021/12/10 11:16:19;;;;;;;42.88;15.32;;;;;;;;;;5008242;28;20473;-41
2021/12/10 11:18:56;;;;;;;34.30;14.23;;;;;;;;;;5005071;28;21628;-39
2021/12/10 11:21:41;;;;;;;35.60;15.32;;;;;;;;;;5007920;28;20022;-45
2021/12/10 11:24:09;;;;;;;36.65;14.40;;;;;;;;;;5006999;28;20741;-40
2021/12/10 11:26:46;;;;;;;35.38;13.80;;;;;;;;;;5006566;28;20026;-38
2021/12/10 11:29:35;;;;;;;35.08;14.80;;;;;;;;;;5005891;28;20026;-38
2021/12/10 11:32:22;;;;;;;36.75;15.50;;;;;;;;;;5006403;28;20492;-38
2021/12/10 11:35:08;;;;;;;42.35;15.35;;;;;;;;;;4995142;28;20109;-38
2021/12/10 11:37:43;;;;;;;36.80;15.10;;;;;;;;;;5010422;28;20014;-38
2021/12/10 11:40:27;;;;;;;31.52;14.68;;;;;;;;;;5007374;28;20021;-37
2021/12/10 11:43:01;;;;;;;31.90;13.43;;;;;;;;;;5008806;28;20033;-38
2021/12/10 11:45:41;;;;;;;29.95;13.70;;;;;;;;;;5009303;28;20029;-37
2021/12/10 11:48:13;;;;;;;35.90;12.85;;;;;;;;;;5010379;28;20536;-39
2021/12/10 11:50:47;;;;;;;29.15;12.35;;;;;;;;;;5004726;28;20036;-37
2021/12/10 11:53:16;;;;;;;32.25;13.48;;;;;;;;;;5012310;28;20029;-38
2021/12/10 11:56:02;;;;;;;29.08;12.98;;;;;;;;;;5011392;28;20065;-38
2021/12/10 11:58:28;;;;;;;32.78;12.80;;;;;;;;;;5012718;28;20465;-38
2021/12/10 12:00:54;;;;;;;30.15;12.38;;;;;;;;;;5009505;28;20073;-39
2021/12/10 12:03:23;;;;;;;27.75;11.02;;;;;;;;;;5006122;28;20018;-38
2021/12/10 12:05:49;;;;;;;26.02;10.85;;;;;;;;;;5007446;28;20070;-38
2021/12/10 12:08:17;;;;;;;28.77;11.60;;;;;;;;;;5006864;28;20033;-37
2021/12/10 12:10:46;;;;;;;23.25;11.25;;;;;;;;;;5008995;28;20033;-39
2021/12/10 12:15:42;;;;;;;27.70;11.13;;;;;;;;;;5009064;28;20163;-38
2021/12/10 12:18:22;;;;;;;24.52;11.15;;;;;;;;;;5009153;28;20105;-38
2021/12/10 12:20:48;;;;;;;27.48;11.68;;;;;;;;;;5006266;28;20503;-37
2021/12/10 12:26:09;;;;;;;21.10;9.88;;;;;;;;;;5007504;28;20041;-37
2021/12/10 12:28:38;;;;;;;24.65;10.98;;;;;;;;;;5007927;28;20028;-38
2021/12/10 12:31:09;;;;;;;24.90;10.70;;;;;;;;;;5006005;28;20049;-39
2021/12/10 12:33:51;;;;;;;24.40;9.90;;;;;;;;;;5008096;28;20094;-39
2021/12/10 12:36:17;;;;;;;30.15;11.32;;;;;;;;;;5007345;28;20424;-38
2021/12/10 12:38:45;;;;;;;27.58;11.30;;;;;;;;;;5001599;28;20025;-39
2021/12/10 12:41:15;;;;;;;28.75;10.45;;;;;;;;;;5004290;28;20029;-38
2021/12/10 12:43:42;;;;;;;23.50;9.95;;;;;;;;;;5002759;28;20563;-37
2021/12/10 12:46:09;;;;;;;24.38;10.55;;;;;;;;;;5005474;28;20506;-39
2021/12/10 12:48:37;;;;;;;23.67;10.30;;;;;;;;;;4998633;28;20049;-38
2021/12/10 12:51:12;;;;;;;22.75;10.75;;;;;;;;;;5006973;28;20623;-39
2021/12/10 12:53:38;;;;;;;26.52;11.43;;;;;;;;;;5007014;28;20030;-37
2021/12/10 12:56:13;;;;;;;32.92;12.55;;;;;;;;;;5005883;28;20026;-38
2021/12/10 12:58:45;;;;;;;29.58;11.75;;;;;;;;;;5016586;28;20025;-39
2021/12/10 13:01:11;;;;;;;30.88;10.05;;;;;;;;;;5005756;28;20048;-38
2021/12/10 13:03:41;;;;;;;27.77;10.00;;;;;;;;;;5007525;28;20461;-38
2021/12/10 13:06:09;;;;;;;27.55;10.95;;;;;;;;;;5007162;28;20058;-39
2021/12/10 13:08:37;;;;;;;30.77;11.70;;;;;;;;;;5010765;28;20029;-38
2021/12/10 13:11:09;;;;;;;29.45;11.27;;;;;;;;;;5003994;28;20109;-38
2021/12/10 13:13:39;;;;;;;27.45;10.45;;;;;;;;;;5000457;28;20033;-37
2021/12/10 13:16:08;;;;;;;30.35;11.90;;;;;;;;;;5012381;28;20558;-38
2021/12/10 13:18:35;;;;;;;34.00;12.85;;;;;;;;;;5010627;28;20044;-38
2021/12/10 13:21:01;;;;;;;26.13;11.73;;;;;;;;;;5006098;28;20369;-39
2021/12/10 13:23:28;;;;;;;30.17;11.98;;;;;;;;;;5010031;28;20469;-39
2021/12/10 13:25:55;;;;;;;32.58;11.88;;;;;;;;;;5014716;28;20029;-39
2021/12/10 13:28:21;;;;;;;29.73;11.88;;;;;;;;;;5012732;28;20057;-39
2021/12/10 13:30:53;;;;;;;32.45;11.88;;;;;;;;;;5010953;28;20018;-38
2021/12/10 13:33:24;;;;;;;28.42;11.73;;;;;;;;;;5010318;28;20032;-37
2021/12/10 13:35:50;;;;;;;31.52;12.00;;;;;;;;;;5012279;28;20084;-38
2021/12/10 13:38:17;;;;;;;25.52;11.05;;;;;;;;;;5005842;28;20125;-38
2021/12/10 13:40:44;;;;;;;25.25;11.10;;;;;;;;;;5012324;28;20018;-45
2021/12/10 13:43:14;;;;;;;27.02;10.48;;;;;;;;;;5013644;28;20080;-38
2021/12/10 13:45:42;;;;;;;23.05;10.07;;;;;;;;;;5010275;28;20144;-38
2021/12/10 13:48:13;;;;;;;28.08;11.38;;;;;;;;;;5007336;28;20046;-45
2021/12/10 13:50:44;;;;;;;22.75;9.70;;;;;;;;;;5011648;28;20026;-39
2021/12/10 13:53:16;;;;;;;24.08;10.65;;;;;;;;;;5005532;28;20025;-39
2021/12/10 13:55:53;;;;;;;22.90;10.27;;;;;;;;;;5008609;28;20029;-38
2021/12/10 13:58:19;;;;;;;26.23;10.27;;;;;;;;;;5009605;28;20057;-37
2021/12/10 14:00:49;;;;;;;32.15;10.93;;;;;;;;;;5010923;28;20398;-38
2021/12/10 14:03:15;;;;;;;22.50;10.90;;;;;;;;;;5010648;28;20029;-38
2021/12/10 14:05:42;;;;;;;28.95;11.18;;;;;;;;;;5011429;28;20061;-39
2021/12/10 14:08:16;;;;;;;27.65;12.18;;;;;;;;;;5008139;28;20110;-38
2021/12/10 14:10:47;;;;;;;22.15;10.57;;;;;;;;;;5010816;28;20029;-38
2021/12/10 14:13:40;;;;;;;31.80;11.68;;;;;;;;;;5003228;28;20034;-38
2021/12/10 14:16:09;;;;;;;29.45;12.63;;;;;;;;;;5006349;28;20504;-38
2021/12/10 14:18:37;;;;;;;24.73;12.52;;;;;;;;;;5011278;28;20022;-37
2021/12/10 14:21:05;;;;;;;27.00;11.88;;;;;;;;;;5010630;28;20036;-37
2021/12/10 14:23:36;;;;;;;32.35;11.95;;;;;;;;;;5006356;28;20045;-38
2021/12/10 14:26:17;;;;;;;31.67;12.68;;;;;;;;;;5008147;28;20121;-39
2021/12/10 14:28:43;;;;;;;35.85;12.25;;;;;;;;;;5008028;28;20059;-39
2021/12/10 14:31:17;;;;;;;32.17;14.10;;;;;;;;;;5010168;28;20033;-37
2021/12/10 14:33:45;;;;;;;32.80;13.63;;;;;;;;;;5012468;28;20432;-38
2021/12/10 14:36:14;;;;;;;36.25;13.77;;;;;;;;;;5013492;28;20104;-38
2021/12/10 14:38:44;;;;;;;35.78;14.13;;;;;;;;;;4996030;28;20373;-38
2021/12/10 14:41:28;;;;;;;30.38;13.40;;;;;;;;;;5011004;28;20084;-38
2021/12/10 14:44:13;;;;;;;47.90;17.38;;;;;;;;;;5017299;28;20102;-38